createdAt,value
2019-02-21T00:01:20.171Z,101015.17
2019-02-21T00:04:00.043Z,101024.55
2019-02-21T00:06:39.778Z,101023.06
2019-02-21T00:09:19.570Z,101023.06
2019-02-21T00:11:59.439Z,101026.34
2019-02-21T00:14:39.336Z,101024.17
2019-02-21T00:17:19.049Z,101023.27
2019-02-21T00:19:58.829Z,101019.87
2019-02-21T00:22:38.854Z,101024.88
2019-02-21T00:25:18.714Z,101027.41
2019-02-21T00:27:58.639Z,101026.38
2019-02-21T00:30:38.490Z,101025.79
2019-02-21T00:33:18.538Z,101023.18
2019-02-21T00:35:58.279Z,101023.09
2019-02-21T00:38:38.056Z,101024.97
2019-02-21T00:41:17.974Z,101032.07
2019-02-21T00:43:57.712Z,101036.91
2019-02-21T00:46:37.464Z,101033.18
2019-02-21T00:49:17.386Z,101039.92
2019-02-21T00:51:57.128Z,101038.72
2019-02-21T00:54:36.928Z,101037.58
2019-02-21T00:57:17.129Z,101034.13
2019-02-21T00:59:56.985Z,101037.73
2019-02-21T01:02:36.697Z,101037.81
2019-02-21T01:05:16.538Z,101036.56
2019-02-21T01:07:56.407Z,101032.72
2019-02-21T01:10:36.199Z,101033.63
2019-02-21T01:13:16.019Z,101032.19
2019-02-21T01:15:55.707Z,101035.05
2019-02-21T01:18:35.612Z,101033.19
2019-02-21T01:21:15.287Z,101026.56
2019-02-21T01:23:55.103Z,101032.06
2019-02-21T01:26:34.837Z,101028.28
2019-02-21T01:29:14.732Z,101029.70
2019-02-21T01:31:54.770Z,101028.83
2019-02-21T01:34:34.615Z,101026.56
2019-02-21T01:37:14.350Z,101021.91
2019-02-21T01:39:54.204Z,101020.97
2019-02-21T01:42:33.949Z,101022.11
2019-02-21T01:45:13.829Z,101026.94
2019-02-21T01:47:53.641Z,101021.11
2019-02-21T01:50:33.929Z,101026.02
2019-02-21T01:53:13.970Z,101029.09
2019-02-21T01:55:53.722Z,101024.88
2019-02-21T01:58:33.600Z,101023.36
2019-02-21T02:01:13.429Z,101020.40
2019-02-21T02:03:53.249Z,101013.38
2019-02-21T02:06:34.009Z,101012.85
2019-02-21T02:09:14.904Z,101010.22
2019-02-21T02:11:54.722Z,101006.09
2019-02-21T02:14:34.622Z,101005.45
2019-02-21T02:17:14.383Z,101005.67
2019-02-21T02:19:54.103Z,101010.69
2019-02-21T02:22:33.744Z,101007.53
2019-02-21T02:25:13.490Z,101002.19
2019-02-21T02:27:53.231Z,101000.86
2019-02-21T02:30:32.954Z,100995.75
2019-02-21T02:33:12.829Z,100995.48
2019-02-21T02:35:52.679Z,100991.66
2019-02-21T02:38:32.418Z,100997.79
2019-02-21T02:41:12.877Z,100996.37
2019-02-21T02:43:52.747Z,100996.59
2019-02-21T02:46:32.404Z,100994.12
2019-02-21T02:49:13.604Z,100988.80
2019-02-21T02:51:53.390Z,100987.94
2019-02-21T02:54:43.429Z,100986.06
2019-02-21T02:57:23.382Z,100991.91
2019-02-21T03:00:14.434Z,100993.05
2019-02-21T03:02:55.908Z,100990.97
2019-02-21T03:05:35.682Z,100992.77
2019-02-21T03:08:15.445Z,100994.78
2019-02-21T03:10:55.214Z,100986.95
2019-02-21T03:13:36.679Z,100991.69
2019-02-21T03:16:16.402Z,100991.69
2019-02-21T03:18:56.081Z,100991.56
2019-02-21T03:21:35.802Z,100991.41
2019-02-21T03:24:15.511Z,100993.34
2019-02-21T03:26:55.237Z,100990.14
2019-02-21T03:29:35.043Z,100997.44
2019-02-21T03:32:14.916Z,100989.72
2019-02-21T03:34:55.063Z,100985.89
2019-02-21T03:37:34.779Z,100981.89
2019-02-21T03:40:15.562Z,100981.45
2019-02-21T03:42:55.300Z,100975.98
2019-02-21T03:45:35.015Z,100980.89
2019-02-21T03:48:14.770Z,100981.65
2019-02-21T03:50:54.756Z,100980.11
2019-02-21T03:53:34.619Z,100983.11
2019-02-21T03:56:14.899Z,100990.78
2019-02-21T03:58:54.732Z,100997.11
2019-02-21T04:01:34.486Z,101001.99
2019-02-21T04:04:14.139Z,101003.89
2019-02-21T04:06:53.877Z,101005.95
2019-02-21T04:09:33.570Z,101011.00
2019-02-21T04:12:14.195Z,101023.02
2019-02-21T04:14:54.006Z,101017.64
2019-02-21T04:17:33.916Z,101019.34
2019-02-21T04:20:13.840Z,101016.77
2019-02-21T04:22:53.649Z,101016.34
2019-02-21T04:25:33.314Z,101015.18
2019-02-21T04:28:14.263Z,101018.91
2019-02-21T04:30:54.076Z,101012.86
2019-02-21T04:33:34.498Z,101006.31
2019-02-21T04:36:14.403Z,101006.28
2019-02-21T04:38:54.407Z,101003.22
2019-02-21T04:41:34.234Z,101001.42
2019-02-21T04:44:14.053Z,101000.98
2019-02-21T04:46:53.768Z,101004.16
2019-02-21T04:49:33.559Z,101007.31
2019-02-21T04:52:13.427Z,101006.19
2019-02-21T04:54:53.765Z,101007.84
2019-02-21T04:57:33.741Z,101001.58
2019-02-21T05:00:13.927Z,101007.56
2019-02-21T05:02:53.736Z,101007.25
2019-02-21T05:05:33.769Z,101005.64
2019-02-21T05:08:13.698Z,101010.59
2019-02-21T05:10:53.463Z,101012.19
2019-02-21T05:13:33.925Z,101011.42
2019-02-21T05:16:13.973Z,101002.98
2019-02-21T05:18:53.805Z,101005.15
2019-02-21T05:21:33.543Z,101010.76
2019-02-21T05:24:13.345Z,101005.46
2019-02-21T05:27:00.396Z,101006.67
2019-02-21T05:29:40.571Z,101013.58
2019-02-21T05:32:40.988Z,101009.19
2019-02-21T05:35:31.125Z,101008.55
2019-02-21T05:38:35.452Z,101010.75
2019-02-21T05:41:37.238Z,101009.60
2019-02-21T05:44:29.123Z,101012.30
2019-02-21T05:47:37.155Z,101017.00
2019-02-21T05:50:28.742Z,101008.69
2019-02-21T05:53:33.302Z,101011.28
2019-02-21T05:56:30.128Z,101010.36
2019-02-21T05:59:20.663Z,101016.07
2019-02-21T06:02:19.450Z,101014.27
2019-02-21T06:05:19.280Z,101010.14
2019-02-21T06:08:21.817Z,101012.69
2019-02-21T06:11:18.494Z,101017.40
2019-02-21T06:14:11.277Z,101021.47
2019-02-21T06:17:28.641Z,101021.10
2019-02-21T06:20:33.759Z,101024.97
2019-02-21T06:23:32.788Z,101035.20
2019-02-21T06:26:19.875Z,101033.25
2019-02-21T06:29:03.727Z,101033.98
2019-02-21T06:31:43.460Z,101040.44
2019-02-21T06:34:23.193Z,101040.64
2019-02-21T06:37:03.002Z,101035.69
2019-02-21T06:39:42.858Z,101037.70
2019-02-21T06:42:22.622Z,101039.49
2019-02-21T06:45:02.738Z,101035.27
2019-02-21T06:47:42.482Z,101033.40
2019-02-21T06:50:26.700Z,101034.15
2019-02-21T06:53:03.707Z,101033.37
2019-02-21T06:55:43.549Z,101020.80
2019-02-21T06:58:23.569Z,101023.64
2019-02-21T07:01:03.343Z,101020.25
2019-02-21T07:03:43.512Z,101019.16
2019-02-21T07:06:31.365Z,101012.39
2019-02-21T07:09:05.738Z,101000.81
2019-02-21T07:11:46.105Z,101001.32
2019-02-21T07:14:26.287Z,101000.56
2019-02-21T07:17:08.452Z,100999.56
2019-02-21T07:19:48.871Z,101004.31
2019-02-21T07:22:28.632Z,101006.78
2019-02-21T07:25:21.894Z,101002.61
2019-02-21T07:28:11.347Z,101010.58
2019-02-21T07:30:43.366Z,101007.88
2019-02-21T07:33:28.550Z,101005.22
2019-02-21T07:36:04.735Z,100997.22
2019-02-21T07:38:44.521Z,100997.60
2019-02-21T07:41:24.335Z,100992.68
2019-02-21T07:44:11.618Z,100987.85
2019-02-21T07:46:46.426Z,100987.53
2019-02-21T07:49:26.870Z,100983.49
2019-02-21T07:52:07.103Z,100991.57
2019-02-21T07:54:50.902Z,101000.41
2019-02-21T07:57:30.761Z,101002.41
2019-02-21T08:00:11.742Z,101005.53
2019-02-21T08:02:51.640Z,101007.08
2019-02-21T08:05:34.185Z,101014.88
2019-02-21T08:08:16.167Z,101009.13
2019-02-21T08:10:55.987Z,101019.84
2019-02-21T08:13:35.817Z,101019.69
2019-02-21T08:16:15.780Z,101014.07
2019-02-21T08:18:55.639Z,101014.66
2019-02-21T08:21:35.465Z,101021.96
2019-02-21T08:24:15.354Z,101022.34
2019-02-21T08:26:55.173Z,101025.02
2019-02-21T08:29:34.981Z,101021.30
2019-02-21T08:32:16.847Z,101027.67
2019-02-21T08:34:56.852Z,101025.92
2019-02-21T08:37:36.662Z,101033.72
2019-02-21T08:40:16.483Z,101033.27
2019-02-21T08:42:56.488Z,101038.52
2019-02-21T08:45:36.203Z,101039.55
2019-02-21T08:48:16.044Z,101041.09
2019-02-21T08:50:56.036Z,101038.95
2019-02-21T08:53:36.003Z,101037.91
2019-02-21T08:56:16.203Z,101041.41
2019-02-21T08:58:57.681Z,101040.52
2019-02-21T09:01:37.583Z,101037.39
2019-02-21T09:04:26.915Z,101042.76
2019-02-21T09:06:59.830Z,101041.38
2019-02-21T09:09:40.364Z,101042.09
2019-02-21T09:12:20.462Z,101045.91
2019-02-21T09:15:00.613Z,101038.95
2019-02-21T09:17:40.455Z,101047.55
2019-02-21T09:20:20.387Z,101051.30
2019-02-21T09:23:00.198Z,101043.53
2019-02-21T09:25:39.837Z,101032.64
2019-02-21T09:28:19.695Z,101041.19
2019-02-21T09:30:59.561Z,101040.97
2019-02-21T09:33:39.632Z,101041.06
2019-02-21T09:36:19.350Z,101044.30
2019-02-21T09:38:59.117Z,101044.11
2019-02-21T09:41:39.053Z,101040.66
2019-02-21T09:44:19.297Z,101036.13
2019-02-21T09:47:02.373Z,101031.33
2019-02-21T09:49:42.167Z,101038.13
2019-02-21T09:52:22.179Z,101036.17
2019-02-21T09:55:02.080Z,101039.66
2019-02-21T09:57:43.144Z,101032.19
2019-02-21T10:00:22.941Z,101034.13
2019-02-21T10:03:03.781Z,101041.33
2019-02-21T10:05:43.680Z,101041.16
2019-02-21T10:08:23.632Z,101041.40
2019-02-21T10:11:03.549Z,101038.18
2019-02-21T10:13:44.616Z,101044.84
2019-02-21T10:16:24.410Z,101043.95
2019-02-21T10:19:04.274Z,101042.72
2019-02-21T10:21:44.066Z,101040.68
2019-02-21T10:24:23.842Z,101048.66
2019-02-21T10:27:03.644Z,101051.94
2019-02-21T10:29:43.443Z,101046.99
2019-02-21T10:32:23.279Z,101047.65
2019-02-21T10:35:03.064Z,101055.91
2019-02-21T10:37:42.940Z,101062.88
2019-02-21T10:40:23.216Z,101056.54
2019-02-21T10:43:02.977Z,101059.50
2019-02-21T10:45:47.743Z,101060.77
2019-02-21T10:48:27.090Z,101055.55
2019-02-21T10:51:06.963Z,101055.97
2019-02-21T10:53:47.397Z,101054.70
2019-02-21T10:56:27.218Z,101056.59
2019-02-21T10:59:06.971Z,101052.80
2019-02-21T11:01:46.824Z,101055.33
2019-02-21T11:04:26.946Z,101057.39
2019-02-21T11:07:06.647Z,101058.50
2019-02-21T11:09:47.313Z,101056.32
2019-02-21T11:12:27.199Z,101059.02
2019-02-21T11:15:10.967Z,101046.45
2019-02-21T11:17:51.029Z,101038.98
2019-02-21T11:20:30.869Z,101021.41
2019-02-21T11:23:10.719Z,101022.92
2019-02-21T11:25:51.825Z,101020.55
2019-02-21T11:28:31.776Z,101014.53
2019-02-21T11:31:11.711Z,101004.82
2019-02-21T11:33:51.998Z,101007.69
2019-02-21T11:36:31.895Z,101001.84
2019-02-21T11:39:11.683Z,100991.29
2019-02-21T11:41:51.496Z,100982.79
2019-02-21T11:44:31.332Z,100980.01
2019-02-21T11:47:11.227Z,100978.50
2019-02-21T11:49:53.279Z,100979.29
2019-02-21T11:52:33.286Z,100981.12
2019-02-21T11:55:16.232Z,100976.30
2019-02-21T11:57:56.068Z,100980.11
2019-02-21T12:00:36.175Z,100982.97
2019-02-21T12:03:16.116Z,100985.79
2019-02-21T12:05:55.885Z,100986.22
2019-02-21T12:08:35.738Z,100983.83
2019-02-21T12:11:15.604Z,100980.13
2019-02-21T12:13:55.539Z,100971.14
2019-02-21T12:16:38.541Z,100977.81
2019-02-21T12:19:19.035Z,100980.81
2019-02-21T12:21:59.543Z,100967.62
2019-02-21T12:24:39.364Z,100961.88
2019-02-21T12:27:19.194Z,100957.34
2019-02-21T12:29:59.031Z,100960.38
2019-02-21T12:32:38.854Z,100953.00
2019-02-21T12:35:29.395Z,100943.42
2019-02-21T12:38:00.038Z,100942.48
2019-02-21T12:40:39.858Z,100940.58
2019-02-21T12:43:21.040Z,100933.38
2019-02-21T12:46:03.144Z,100927.09
2019-02-21T12:48:42.989Z,100921.87
2019-02-21T12:51:22.956Z,100922.05
2019-02-21T12:54:06.330Z,100911.36
2019-02-21T12:56:45.812Z,100916.31
2019-02-21T12:59:25.495Z,100926.17
2019-02-21T13:02:05.941Z,100918.05
2019-02-21T13:04:45.737Z,100922.75
2019-02-21T13:07:27.486Z,100929.80
2019-02-21T13:10:11.277Z,100922.63
2019-02-21T13:12:51.118Z,100914.19
2019-02-21T13:15:31.857Z,100912.88
2019-02-21T13:18:15.854Z,100915.23
2019-02-21T13:20:52.946Z,100916.14
2019-02-21T13:23:32.669Z,100911.84
2019-02-21T13:26:12.700Z,100910.14
2019-02-21T13:28:52.161Z,100915.95
2019-02-21T13:31:31.927Z,100916.25
2019-02-21T13:34:11.862Z,100913.09
2019-02-21T13:36:51.393Z,100903.66
2019-02-21T13:39:31.237Z,100907.00
2019-02-21T13:42:10.787Z,100901.09
2019-02-21T13:44:50.536Z,100898.47
2019-02-21T13:47:30.430Z,100896.66
2019-02-21T13:50:14.098Z,100894.84
2019-02-21T13:52:53.537Z,100899.80
2019-02-21T13:55:33.434Z,100895.80
2019-02-21T13:58:13.320Z,100901.47
2019-02-21T14:00:53.128Z,100901.25
2019-02-21T14:03:32.869Z,100900.80
2019-02-21T14:06:15.148Z,100907.34
2019-02-21T14:08:54.853Z,100900.78
2019-02-21T14:11:34.740Z,100903.38
2019-02-21T14:14:14.550Z,100904.61
2019-02-21T14:16:54.426Z,100894.02
2019-02-21T14:19:34.168Z,100906.09
2019-02-21T14:22:15.454Z,100908.12
2019-02-21T14:24:55.138Z,100905.38
2019-02-21T14:27:34.863Z,100910.53
2019-02-21T14:30:17.094Z,100914.52
2019-02-21T14:32:59.882Z,100918.14
2019-02-21T14:35:40.798Z,100919.86
2019-02-21T14:38:27.776Z,100919.59
2019-02-21T14:41:01.980Z,100914.36
2019-02-21T14:43:41.774Z,100910.57
2019-02-21T14:46:21.856Z,100906.66
2019-02-21T14:49:01.584Z,100909.64
2019-02-21T14:51:42.558Z,100913.38
2019-02-21T14:54:24.060Z,100908.28
2019-02-21T14:57:03.838Z,100912.48
2019-02-21T14:59:46.351Z,100917.56
2019-02-21T15:02:26.044Z,100920.86
2019-02-21T15:05:06.276Z,100926.01
2019-02-21T15:07:46.098Z,100913.91
2019-02-21T15:10:25.893Z,100916.55
2019-02-21T15:13:05.622Z,100904.24
2019-02-21T15:15:45.516Z,100900.92
2019-02-21T15:18:25.337Z,100901.03
2019-02-21T15:21:06.167Z,100903.74
2019-02-21T15:23:46.015Z,100911.78
2019-02-21T15:26:26.054Z,100909.48
2019-02-21T15:29:05.764Z,100915.58
2019-02-21T15:31:46.131Z,100914.39
2019-02-21T15:34:26.991Z,100922.75
2019-02-21T15:37:07.266Z,100927.70
2019-02-21T15:39:47.024Z,100924.33
2019-02-21T15:42:26.902Z,100931.02
2019-02-21T15:45:22.897Z,100922.93
2019-02-21T15:47:58.798Z,100921.70
2019-02-21T15:50:38.617Z,100921.67
2019-02-21T15:53:18.550Z,100915.63
2019-02-21T15:55:58.446Z,100928.78
2019-02-21T15:58:38.500Z,100924.06
2019-02-21T16:01:18.364Z,100926.84
2019-02-21T16:03:58.331Z,100927.83
2019-02-21T16:06:48.207Z,100931.77
2019-02-21T16:09:22.048Z,100930.09
2019-02-21T16:12:02.405Z,100932.16
2019-02-21T16:14:42.192Z,100929.65
2019-02-21T16:17:22.067Z,100932.51
2019-02-21T16:20:02.127Z,100933.80
2019-02-21T16:22:42.155Z,100935.45
2019-02-21T16:25:22.735Z,100938.11
2019-02-21T16:28:02.664Z,100934.97
2019-02-21T16:30:42.588Z,100930.03
2019-02-21T16:33:22.320Z,100938.63
2019-02-21T16:36:02.412Z,100941.73
2019-02-21T16:38:43.932Z,100947.61
2019-02-21T16:41:24.151Z,100941.31
2019-02-21T16:44:04.049Z,100947.61
2019-02-21T16:46:44.069Z,100942.95
2019-02-21T16:49:24.827Z,100941.63
2019-02-21T16:52:04.936Z,100944.12
2019-02-21T16:54:44.779Z,100945.91
2019-02-21T16:57:24.472Z,100955.66
2019-02-21T17:00:04.459Z,100955.33
2019-02-21T17:02:45.845Z,100954.30
2019-02-21T17:05:25.743Z,100956.21
2019-02-21T17:08:05.750Z,100960.03
2019-02-21T17:10:45.653Z,100958.89
2019-02-21T17:13:25.366Z,100960.98
2019-02-21T17:16:05.131Z,100958.44
2019-02-21T17:18:44.899Z,100956.41
2019-02-21T17:21:25.690Z,100959.34
2019-02-21T17:24:05.832Z,100965.23
2019-02-21T17:26:46.570Z,100963.66
2019-02-21T17:29:26.332Z,100960.23
2019-02-21T17:32:06.297Z,100961.77
2019-02-21T17:34:46.124Z,100960.24
2019-02-21T17:37:27.202Z,100963.89
2019-02-21T17:40:09.838Z,100961.62
2019-02-21T17:42:49.738Z,100959.91
2019-02-21T17:45:29.829Z,100963.05
2019-02-21T17:48:09.763Z,100968.02
2019-02-21T17:50:49.537Z,100967.33
2019-02-21T17:53:29.375Z,100970.36
2019-02-21T17:56:09.621Z,100975.95
2019-02-21T17:58:49.462Z,100978.92
2019-02-21T18:01:29.570Z,100978.36
2019-02-21T18:04:11.373Z,100974.09
2019-02-21T18:06:51.484Z,100973.31
2019-02-21T18:09:31.717Z,100970.89
2019-02-21T18:12:12.607Z,100974.45
2019-02-21T18:14:55.745Z,100965.83
2019-02-21T18:17:35.797Z,100966.16
2019-02-21T18:20:15.920Z,100968.31
2019-02-21T18:22:56.126Z,100965.23
2019-02-21T18:25:44.078Z,100963.52
2019-02-21T18:28:24.442Z,100959.34
2019-02-21T18:31:06.134Z,100965.07
2019-02-21T18:33:46.224Z,100971.70
2019-02-21T18:36:26.246Z,100972.73
2019-02-21T18:39:09.545Z,100974.23
2019-02-21T18:41:50.005Z,100981.23
2019-02-21T18:44:30.245Z,100985.37
2019-02-21T18:47:10.083Z,100984.77
2019-02-21T18:49:50.229Z,100979.72
2019-02-21T18:52:35.301Z,100985.55
2019-02-21T18:55:15.500Z,100977.92
2019-02-21T18:57:55.257Z,100970.20
2019-02-21T19:00:35.571Z,100965.36
2019-02-21T19:03:15.549Z,100961.54
2019-02-21T19:05:56.117Z,100963.38
2019-02-21T19:08:38.903Z,100967.16
2019-02-21T19:11:19.081Z,100961.75
2019-02-21T19:13:58.912Z,100963.75
2019-02-21T19:16:39.450Z,100964.47
2019-02-21T19:19:19.298Z,100965.44
2019-02-21T19:22:00.617Z,100962.52
2019-02-21T19:24:40.784Z,100957.88
2019-02-21T19:27:20.809Z,100958.70
2019-02-21T19:30:00.808Z,100958.72
2019-02-21T19:32:42.603Z,100958.72
2019-02-21T19:35:22.550Z,100952.05
2019-02-21T19:38:10.418Z,100942.75
2019-02-21T19:40:46.250Z,100937.27
2019-02-21T19:43:26.125Z,100937.41
2019-02-21T19:46:06.110Z,100941.39
2019-02-21T19:48:49.610Z,100935.63
2019-02-21T19:51:31.619Z,100942.40
2019-02-21T19:54:11.700Z,100937.17
2019-02-21T19:56:51.525Z,100950.69
2019-02-21T19:59:33.779Z,100955.91
2019-02-21T20:02:13.557Z,100947.96
2019-02-21T20:04:55.201Z,100945.22
2019-02-21T20:07:35.056Z,100955.92
2019-02-21T20:10:15.660Z,100962.27
2019-02-21T20:12:57.266Z,100959.59
2019-02-21T20:15:42.018Z,100955.34
2019-02-21T20:18:23.865Z,100955.20
2019-02-21T20:21:03.862Z,100954.16
2019-02-21T20:23:43.788Z,100949.80
2019-02-21T20:26:23.682Z,100953.25
2019-02-21T20:29:05.451Z,100951.67
2019-02-21T20:31:46.512Z,100956.95
2019-02-21T20:34:26.388Z,100958.08
2019-02-21T20:37:06.459Z,100954.20
2019-02-21T20:39:47.543Z,100953.09
2019-02-21T20:42:27.691Z,100959.34
2019-02-21T20:45:08.242Z,100949.37
2019-02-21T20:47:49.235Z,100951.91
2019-02-21T20:50:29.058Z,100944.63
2019-02-21T20:53:09.137Z,100940.06
2019-02-21T20:55:49.100Z,100946.77
2019-02-21T20:58:29.227Z,100947.83
2019-02-21T21:01:09.305Z,100953.41
2019-02-21T21:03:49.255Z,100957.75
2019-02-21T21:06:30.397Z,100956.86
2019-02-21T21:09:12.125Z,100952.59
2019-02-21T21:11:56.332Z,100953.05
2019-02-21T21:14:37.314Z,100958.11
2019-02-21T21:17:20.453Z,100957.44
2019-02-21T21:20:00.456Z,100959.42
2019-02-21T21:22:40.422Z,100960.88
2019-02-21T21:25:20.828Z,100963.44
2019-02-21T21:28:00.633Z,100962.37
2019-02-21T21:30:40.861Z,100963.86
2019-02-21T21:33:21.470Z,100958.82
2019-02-21T21:36:01.596Z,100953.66
2019-02-21T21:38:53.367Z,100962.46
2019-02-21T21:41:24.853Z,100969.30
2019-02-21T21:44:04.993Z,100956.75
2019-02-21T21:46:45.928Z,100962.57
2019-02-21T21:49:27.395Z,100962.13
2019-02-21T21:52:07.598Z,100968.30
2019-02-21T21:54:50.241Z,100966.09
2019-02-21T21:57:30.384Z,100961.47
2019-02-21T22:00:18.387Z,100964.47
2019-02-21T22:02:59.629Z,100962.15
2019-02-21T22:05:39.459Z,100971.80
2019-02-21T22:08:19.406Z,100967.67
2019-02-21T22:10:59.255Z,100966.76
2019-02-21T22:13:39.121Z,100964.95
2019-02-21T22:16:19.167Z,100963.17
2019-02-21T22:19:00.596Z,100968.05
2019-02-21T22:21:41.536Z,100971.06
2019-02-21T22:24:21.623Z,100973.35
2019-02-21T22:27:01.375Z,100976.19
2019-02-21T22:29:41.383Z,100966.80
2019-02-21T22:32:21.148Z,100965.63
2019-02-21T22:35:01.373Z,100973.10
2019-02-21T22:37:41.224Z,100976.27
2019-02-21T22:40:21.393Z,100974.98
2019-02-21T22:43:03.624Z,100967.03
2019-02-21T22:45:43.857Z,100976.59
2019-02-21T22:48:23.643Z,100979.49
2019-02-21T22:51:03.592Z,100972.33
2019-02-21T22:53:43.496Z,100972.81
2019-02-21T22:56:23.345Z,100971.06
2019-02-21T22:59:03.180Z,100974.66
2019-02-21T23:01:46.188Z,100979.95
2019-02-21T23:05:06.495Z,100984.68
2019-02-21T23:08:32.188Z,100982.78
2019-02-21T23:11:12.410Z,100985.84
2019-02-21T23:13:52.709Z,100985.56
2019-02-21T23:16:32.538Z,100983.80
2019-02-21T23:19:12.651Z,100978.89
2019-02-21T23:21:55.372Z,100988.03
2019-02-21T23:24:35.342Z,100986.72
2019-02-21T23:27:15.119Z,100987.95
2019-02-21T23:29:54.904Z,100991.27
2019-02-21T23:32:34.583Z,100994.25
2019-02-21T23:35:20.215Z,100987.64
2019-02-21T23:37:59.854Z,100992.23
2019-02-21T23:40:39.725Z,100988.77
2019-02-21T23:43:21.966Z,100988.66
2019-02-21T23:46:03.383Z,100987.65
2019-02-21T23:48:43.231Z,100990.52
2019-02-21T23:51:23.136Z,100986.29
2019-02-21T23:54:03.560Z,100975.79
2019-02-21T23:56:43.628Z,100985.08
2019-02-21T23:59:23.468Z,100979.00
